Terminal Aerodrome Forecast
Issued by NWS Grand Forks, ND

Home | Current Version | Previous Version | Graphics & Text | Print | Product List | Glossary On
Versions: 1 2 3 4 5 6 7 8 9 10 11 12 13
019
FTUS43 KFGF 280520
TAFFAR
TAF
KFAR 280520Z 2806/2906 36005KT P6SM SCT250
     FM281600 02005KT P6SM SCT050
     FM290000 03006KT P6SM FEW250=

USA.gov is the U.S. government's official web portal to all federal, state and local government web resources and services.